Time;durP1;ratioP1;P1;durP2;ratioP2;P2;SDS_P1;SDS_P2;PMS_P1;PMS_P2;Temp;Humidity;BMP_temperature;BMP_pressure;BME280_temperature;BME280_humidity;BME280_pressure;Samples;Min_cycle;Max_cycle;Signal;HPM_P1;HPM_P2
2021/03/31 00:01:37;;;;;;;36.03;24.85;;;;;;;;;;5025769;28;20022;-62
2021/03/31 00:04:03;;;;;;;36.22;25.70;;;;;;;;;;4993082;28;20387;-65
2021/03/31 00:06:29;;;;;;;36.28;24.10;;;;;;;;;;5025602;28;20030;-62
2021/03/31 00:08:55;;;;;;;36.85;25.85;;;;;;;;;;4993927;28;20542;-62
2021/03/31 00:11:21;;;;;;;35.05;25.05;;;;;;;;;;5025352;28;20065;-62
2021/03/31 00:13:48;;;;;;;37.42;23.95;;;;;;;;;;4994117;28;20022;-62
2021/03/31 00:16:13;;;;;;;41.58;25.80;;;;;;;;;;4994039;28;20106;-62
2021/03/31 00:18:39;;;;;;;40.08;26.05;;;;;;;;;;4993990;28;20034;-63
2021/03/31 00:21:06;;;;;;;43.55;26.27;;;;;;;;;;4993732;28;20488;-62
2021/03/31 00:23:32;;;;;;;42.03;27.08;;;;;;;;;;4993827;28;20026;-62
2021/03/31 00:25:58;;;;;;;34.20;23.25;;;;;;;;;;5025206;28;20053;-64
2021/03/31 00:28:24;;;;;;;43.45;24.65;;;;;;;;;;4993939;28;20034;-62
2021/03/31 00:30:50;;;;;;;34.95;22.40;;;;;;;;;;4993640;28;20107;-62
2021/03/31 00:33:17;;;;;;;37.75;24.23;;;;;;;;;;4993966;28;20033;-62
2021/03/31 00:35:43;;;;;;;38.72;22.83;;;;;;;;;;5025390;28;20022;-63
2021/03/31 00:38:09;;;;;;;36.33;23.95;;;;;;;;;;4993685;28;20496;-63
2021/03/31 00:43:09;;;;;;;41.80;24.52;;;;;;;;;;4970798;28;20109;-55
2021/03/31 00:45:36;;;;;;;36.65;24.67;;;;;;;;;;4973656;28;20038;-58
2021/03/31 00:48:02;;;;;;;35.30;23.73;;;;;;;;;;4986115;28;20035;-57
2021/03/31 00:50:28;;;;;;;39.22;24.95;;;;;;;;;;4988640;28;20025;-61
2021/03/31 00:52:55;;;;;;;38.50;24.98;;;;;;;;;;4974032;28;20081;-60
2021/03/31 00:55:22;;;;;;;34.78;24.40;;;;;;;;;;4988686;28;20027;-61
2021/03/31 00:57:48;;;;;;;35.22;24.17;;;;;;;;;;4990472;28;20400;-59
2021/03/31 01:00:15;;;;;;;39.60;26.15;;;;;;;;;;4976015;28;20089;-62
2021/03/31 01:02:41;;;;;;;39.47;24.27;;;;;;;;;;4975477;28;20031;-61
2021/03/31 01:05:12;;;;;;;34.50;23.80;;;;;;;;;;4975507;28;20476;-62
2021/03/31 01:07:38;;;;;;;33.10;23.30;;;;;;;;;;4989754;28;20038;-58
2021/03/31 01:10:05;;;;;;;37.40;24.08;;;;;;;;;;4988849;28;20034;-63
2021/03/31 01:12:50;;;;;;;36.03;23.23;;;;;;;;;;4974104;28;20030;-62
2021/03/31 01:15:23;;;;;;;34.67;22.33;;;;;;;;;;4989323;28;20029;-61
2021/03/31 01:18:07;;;;;;;36.72;24.58;;;;;;;;;;4988994;28;20035;-59
2021/03/31 01:20:49;;;;;;;39.33;25.30;;;;;;;;;;4973227;28;20031;-56
2021/03/31 01:23:30;;;;;;;35.22;23.95;;;;;;;;;;4973128;28;20027;-60
2021/03/31 01:26:05;;;;;;;37.55;22.90;;;;;;;;;;4988079;28;20037;-60
2021/03/31 01:28:34;;;;;;;34.38;22.25;;;;;;;;;;4988061;28;20488;-59
2021/03/31 01:31:07;;;;;;;36.38;23.52;;;;;;;;;;4987861;28;20109;-59
2021/03/31 01:33:42;;;;;;;40.45;24.83;;;;;;;;;;4972863;28;20396;-60
2021/03/31 01:36:10;;;;;;;33.95;23.60;;;;;;;;;;4973169;28;20023;-61
2021/03/31 01:38:37;;;;;;;31.90;22.15;;;;;;;;;;4987884;28;20062;-60
2021/03/31 01:41:03;;;;;;;33.88;23.15;;;;;;;;;;4990253;28;20034;-61
2021/03/31 01:43:32;;;;;;;32.95;22.73;;;;;;;;;;5007200;28;20092;-60
2021/03/31 01:46:00;;;;;;;;;;;;;;;;;;5008090;28;20488;-60
2021/03/31 01:48:31;;;;;;;33.35;23.85;;;;;;;;;;4991985;28;20509;-57
2021/03/31 01:50:59;;;;;;;36.67;23.08;;;;;;;;;;4992204;28;20026;-60
2021/03/31 01:53:26;;;;;;;36.20;23.42;;;;;;;;;;5007235;28;20027;-54
2021/03/31 01:55:52;;;;;;;39.33;25.13;;;;;;;;;;5007255;28;20076;-60
2021/03/31 01:58:19;;;;;;;35.33;23.92;;;;;;;;;;5007397;28;20369;-59
2021/03/31 02:00:45;;;;;;;36.33;24.25;;;;;;;;;;4992541;28;20388;-60
2021/03/31 02:03:15;;;;;;;34.78;23.33;;;;;;;;;;4992057;28;20027;-59
2021/03/31 02:05:41;;;;;;;35.65;23.67;;;;;;;;;;4992388;28;20414;-59
2021/03/31 02:08:08;;;;;;;35.88;23.15;;;;;;;;;;5007369;28;20057;-60
2021/03/31 02:10:34;;;;;;;37.95;23.17;;;;;;;;;;5007387;28;20069;-54
2021/03/31 02:13:00;;;;;;;35.33;23.50;;;;;;;;;;5007189;28;20395;-59
2021/03/31 02:15:29;;;;;;;34.35;23.33;;;;;;;;;;5007003;28;20581;-63
2021/03/31 02:17:59;;;;;;;33.75;22.38;;;;;;;;;;4991925;28;20037;-60
2021/03/31 02:20:25;;;;;;;33.55;22.42;;;;;;;;;;4991863;28;20136;-62
2021/03/31 02:22:52;;;;;;;33.85;23.17;;;;;;;;;;5007230;28;20030;-54
2021/03/31 02:25:19;;;;;;;33.50;23.45;;;;;;;;;;5006846;28;20436;-60
2021/03/31 02:27:46;;;;;;;39.75;23.90;;;;;;;;;;5008087;28;20375;-61
2021/03/31 02:30:13;;;;;;;38.72;22.80;;;;;;;;;;5010751;28;20033;-60
2021/03/31 02:32:40;;;;;;;35.22;23.95;;;;;;;;;;5010511;28;20117;-60
2021/03/31 02:35:07;;;;;;;35.40;22.73;;;;;;;;;;5010393;28;20023;-58
2021/03/31 02:37:33;;;;;;;34.55;23.63;;;;;;;;;;5010676;28;20026;-55
2021/03/31 02:40:00;;;;;;;34.13;23.55;;;;;;;;;;5010796;28;20018;-61
2021/03/31 02:42:27;;;;;;;34.38;23.67;;;;;;;;;;5010327;28;20030;-59
2021/03/31 02:44:54;;;;;;;34.88;22.42;;;;;;;;;;5010397;28;20029;-60
2021/03/31 02:47:28;;;;;;;34.10;24.27;;;;;;;;;;5010748;28;20391;-57
2021/03/31 02:49:57;;;;;;;35.58;22.77;;;;;;;;;;4995382;28;20029;-58
2021/03/31 02:52:23;;;;;;;37.65;22.58;;;;;;;;;;5010453;28;20025;-59
2021/03/31 02:54:50;;;;;;;34.17;22.85;;;;;;;;;;4995144;28;20580;-56
2021/03/31 02:57:18;;;;;;;38.00;23.67;;;;;;;;;;4995252;28;20400;-60
2021/03/31 02:59:45;;;;;;;39.43;24.13;;;;;;;;;;5010108;28;20041;-52
2021/03/31 03:02:11;;;;;;;35.58;22.63;;;;;;;;;;5009923;28;20266;-59
2021/03/31 03:04:38;;;;;;;34.15;23.73;;;;;;;;;;4994352;28;20037;-59
2021/03/31 03:07:06;;;;;;;33.15;22.98;;;;;;;;;;5009926;28;20033;-59
2021/03/31 03:09:32;;;;;;;37.20;24.33;;;;;;;;;;5009830;28;20034;-57
2021/03/31 03:11:59;;;;;;;36.25;23.73;;;;;;;;;;5009939;28;20081;-57
2021/03/31 03:14:25;;;;;;;35.10;22.75;;;;;;;;;;5009821;28;20022;-59
2021/03/31 03:16:52;;;;;;;38.50;24.02;;;;;;;;;;4994816;28;20384;-59
2021/03/31 03:19:19;;;;;;;35.88;22.70;;;;;;;;;;5010142;28;20034;-60
2021/03/31 03:21:46;;;;;;;33.28;24.55;;;;;;;;;;5009789;28;20065;-57
2021/03/31 03:24:12;;;;;;;35.38;23.33;;;;;;;;;;4994303;28;20084;-58
2021/03/31 03:26:39;;;;;;;34.53;22.92;;;;;;;;;;5009493;28;20551;-59
2021/03/31 03:29:07;;;;;;;34.05;22.63;;;;;;;;;;5009265;28;20117;-54
2021/03/31 03:31:33;;;;;;;33.77;23.50;;;;;;;;;;5009109;28;20554;-59
2021/03/31 03:34:01;;;;;;;35.00;22.30;;;;;;;;;;4993980;28;20081;-59
2021/03/31 03:36:27;;;;;;;36.80;22.23;;;;;;;;;;4994269;28;20019;-59
2021/03/31 03:38:53;;;;;;;37.70;22.50;;;;;;;;;;5008965;28;20507;-61
2021/03/31 03:41:19;;;;;;;37.03;22.48;;;;;;;;;;4994243;28;20109;-58
2021/03/31 03:43:45;;;;;;;35.95;21.73;;;;;;;;;;5008781;28;20041;-60
2021/03/31 03:46:12;;;;;;;40.35;23.20;;;;;;;;;;5009068;28;20026;-61
2021/03/31 03:48:39;;;;;;;38.42;21.75;;;;;;;;;;5009412;28;20030;-59
2021/03/31 03:51:09;;;;;;;35.05;22.35;;;;;;;;;;4994011;28;20038;-61
2021/03/31 03:53:35;;;;;;;35.25;22.50;;;;;;;;;;5008717;28;20030;-60
2021/03/31 03:56:01;;;;;;;33.72;21.58;;;;;;;;;;4994267;28;20121;-60
2021/03/31 03:58:27;;;;;;;35.72;22.30;;;;;;;;;;4993948;28;20034;-61
2021/03/31 04:00:57;;;;;;;34.72;22.90;;;;;;;;;;4993689;28;20062;-58
2021/03/31 04:03:23;;;;;;;35.45;22.65;;;;;;;;;;5008655;28;20031;-61
2021/03/31 04:05:49;;;;;;;36.55;22.38;;;;;;;;;;4993588;28;20033;-58
2021/03/31 04:08:15;;;;;;;34.28;21.90;;;;;;;;;;5008992;28;20117;-59
2021/03/31 04:10:43;;;;;;;35.03;21.45;;;;;;;;;;4993653;28;20057;-59
2021/03/31 04:13:09;;;;;;;33.78;22.20;;;;;;;;;;5009101;28;20022;-59
2021/03/31 04:15:35;;;;;;;38.50;23.25;;;;;;;;;;5008390;28;20080;-60
2021/03/31 04:18:02;;;;;;;36.40;22.65;;;;;;;;;;5008336;28;20399;-61
2021/03/31 04:20:28;;;;;;;31.00;21.40;;;;;;;;;;4994080;28;20105;-59
2021/03/31 04:22:55;;;;;;;34.05;21.42;;;;;;;;;;5008354;28;20065;-60
2021/03/31 04:25:23;;;;;;;35.25;21.50;;;;;;;;;;5008105;28;20176;-62
2021/03/31 04:27:51;;;;;;;31.67;21.52;;;;;;;;;;5008177;28;20033;-55
2021/03/31 04:30:18;;;;;;;32.50;22.13;;;;;;;;;;4993131;28;20105;-59
2021/03/31 04:32:45;;;;;;;31.13;20.83;;;;;;;;;;5008258;28;20026;-60
2021/03/31 04:35:12;;;;;;;37.78;22.27;;;;;;;;;;5007983;28;20022;-60
2021/03/31 04:37:41;;;;;;;36.78;21.70;;;;;;;;;;5008126;28;20022;-59
2021/03/31 04:40:11;;;;;;;37.72;23.23;;;;;;;;;;4993111;28;20026;-61
2021/03/31 04:42:37;;;;;;;38.50;23.40;;;;;;;;;;4993023;28;20365;-59
2021/03/31 04:45:04;;;;;;;36.53;21.90;;;;;;;;;;5007618;28;20029;-58
2021/03/31 04:47:32;;;;;;;46.45;23.73;;;;;;;;;;5008216;28;20022;-60
2021/03/31 04:49:58;;;;;;;44.03;23.15;;;;;;;;;;5007404;28;20025;-58
2021/03/31 04:52:24;;;;;;;43.58;24.70;;;;;;;;;;5007840;28;20034;-58
2021/03/31 04:54:50;;;;;;;42.85;24.70;;;;;;;;;;4992701;28;20125;-61
2021/03/31 04:57:16;;;;;;;42.10;23.75;;;;;;;;;;4992688;28;20480;-59
2021/03/31 04:59:42;;;;;;;50.42;23.38;;;;;;;;;;5007560;28;20053;-56
2021/03/31 05:02:08;;;;;;;41.85;21.75;;;;;;;;;;5007655;28;20061;-61
2021/03/31 05:04:34;;;;;;;37.25;21.85;;;;;;;;;;5007296;28;20030;-58
2021/03/31 05:07:00;;;;;;;34.47;22.40;;;;;;;;;;5007388;28;20030;-59
2021/03/31 05:09:26;;;;;;;33.67;22.15;;;;;;;;;;5007419;28;20029;-60
2021/03/31 05:11:52;;;;;;;35.35;20.73;;;;;;;;;;5007510;28;20026;-58
2021/03/31 05:14:18;;;;;;;42.78;22.27;;;;;;;;;;5007195;28;20460;-56
2021/03/31 05:16:44;;;;;;;35.63;22.65;;;;;;;;;;4992433;28;20216;-60
2021/03/31 05:19:10;;;;;;;31.67;20.50;;;;;;;;;;5007517;28;20518;-61
2021/03/31 05:21:36;;;;;;;36.78;21.33;;;;;;;;;;5007518;28;20026;-59
2021/03/31 05:24:02;;;;;;;36.03;22.33;;;;;;;;;;5007150;28;20030;-60
2021/03/31 05:26:28;;;;;;;36.72;21.20;;;;;;;;;;4992434;28;20030;-59
2021/03/31 05:28:54;;;;;;;39.92;20.63;;;;;;;;;;5007361;28;20034;-59
2021/03/31 05:31:20;;;;;;;39.03;22.73;;;;;;;;;;5007397;28;20068;-60
2021/03/31 05:33:46;;;;;;;35.85;22.92;;;;;;;;;;4992541;28;20453;-61
2021/03/31 05:36:12;;;;;;;41.25;21.90;;;;;;;;;;4992250;28;20109;-61
2021/03/31 05:38:38;;;;;;;41.42;21.92;;;;;;;;;;5007175;28;20054;-59
2021/03/31 05:41:04;;;;;;;38.05;23.08;;;;;;;;;;5006965;28;20039;-61
2021/03/31 05:43:30;;;;;;;36.13;22.25;;;;;;;;;;4991933;28;20137;-60
2021/03/31 05:45:56;;;;;;;38.25;22.50;;;;;;;;;;5007035;28;20403;-60
2021/03/31 05:48:23;;;;;;;39.92;23.35;;;;;;;;;;4991858;28;20023;-60
2021/03/31 05:50:49;;;;;;;46.22;22.15;;;;;;;;;;4991885;28;20027;-59
2021/03/31 05:53:15;;;;;;;43.97;22.50;;;;;;;;;;5006797;28;20395;-57
2021/03/31 05:55:41;;;;;;;42.65;22.50;;;;;;;;;;5007154;28;20480;-58
2021/03/31 05:58:08;;;;;;;46.42;22.83;;;;;;;;;;5007546;28;20033;-58
2021/03/31 06:00:34;;;;;;;59.38;23.58;;;;;;;;;;5007453;28;20034;-60
2021/03/31 06:03:04;;;;;;;46.95;23.10;;;;;;;;;;4993937;28;20037;-59
2021/03/31 06:05:33;;;;;;;44.17;23.52;;;;;;;;;;5011290;28;20376;-59
2021/03/31 06:07:59;;;;;;;45.30;22.42;;;;;;;;;;5010896;28;20029;-61
2021/03/31 06:10:27;;;;;;;46.17;22.95;;;;;;;;;;4976663;28;20019;-62
2021/03/31 06:12:54;;;;;;;57.22;23.73;;;;;;;;;;4990822;28;20617;-61
2021/03/31 06:15:22;;;;;;;58.70;25.23;;;;;;;;;;4975192;28;20114;-59
2021/03/31 06:17:53;;;;;;;45.53;22.73;;;;;;;;;;5004448;28;20074;-57
2021/03/31 06:20:38;;;;;;;52.10;22.35;;;;;;;;;;4956439;28;20023;-55
2021/03/31 06:26:04;;;;;;;44.20;21.55;;;;;;;;;;4955768;29;20027;-60
2021/03/31 06:28:27;;;;;;;36.50;20.80;;;;;;;;;;4975569;28;20484;-58
2021/03/31 06:31:04;;;;;;;45.47;21.80;;;;;;;;;;5006910;28;20027;-58
2021/03/31 06:33:31;;;;;;;44.05;22.80;;;;;;;;;;5006761;28;20023;-61
2021/03/31 06:35:57;;;;;;;36.67;21.38;;;;;;;;;;5006834;28;20077;-59
2021/03/31 06:38:28;;;;;;;33.22;20.27;;;;;;;;;;5006662;28;20038;-55
2021/03/31 06:41:00;;;;;;;37.70;21.50;;;;;;;;;;5007667;28;20385;-58
2021/03/31 06:43:30;;;;;;;37.25;22.08;;;;;;;;;;5030340;23;20041;-63
2021/03/31 06:46:07;;;;;;;34.65;21.33;;;;;;;;;;5011004;28;20022;-64
2021/03/31 06:48:35;;;;;;;31.30;21.02;;;;;;;;;;5013608;28;20029;-63
2021/03/31 06:51:01;;;;;;;35.90;21.30;;;17.90;57.70;;;;;;5012376;28;20026;-63
2021/03/31 06:53:28;;;;;;;37.47;21.60;;;10.90;99.90;;;;;;5013547;28;20022;-63
2021/03/31 06:56:02;;;;;;;28.25;18.80;;;10.60;99.90;;;;;;5012589;28;20058;-63
2021/03/31 06:58:29;;;;;;;29.10;19.88;;;10.60;99.90;;;;;;5013997;28;20684;-63
2021/03/31 07:00:54;;;;;;;31.45;21.02;;;10.70;99.90;;;;;;5012443;28;20026;-61
2021/03/31 07:03:26;;;;;;;28.85;19.15;;;10.80;99.90;;;;;;5012164;28;20079;-64
2021/03/31 07:05:52;;;;;;;34.45;20.30;;;10.90;99.90;;;;;;5013929;28;20022;-62
2021/03/31 07:08:18;;;;;;;32.53;20.08;;;11.10;99.90;;;;;;5012322;28;20105;-61
2021/03/31 07:10:55;;;;;;;37.60;22.27;;;11.20;99.90;;;;;;5013579;28;20026;-64
2021/03/31 07:13:30;;;;;;;29.52;20.23;;;11.40;99.90;;;;;;5012747;28;20022;-64
2021/03/31 07:15:58;;;;;;;30.27;20.48;;;11.50;99.90;;;;;;5012267;28;20076;-64
2021/03/31 07:18:25;;;;;;;30.15;20.80;;;11.60;99.90;;;;;;5012397;28;20038;-64
2021/03/31 07:20:51;;;;;;;30.63;20.33;;;;;;;;;;5012487;28;20030;-66
2021/03/31 07:23:18;;;;;;;34.30;20.92;;;;;;;;;;5012206;28;20129;-62
2021/03/31 07:25:44;;;;;;;28.88;20.83;;;;;;;;;;5013330;28;20021;-62
2021/03/31 07:28:11;;;;;;;26.95;19.90;;;;;;;;;;5013177;28;20080;-63
2021/03/31 07:30:38;;;;;;;30.15;19.95;;;;;;;;;;5011759;28;20052;-64
2021/03/31 07:33:10;;;;;;;31.77;20.42;;;;;;;;;;5011622;28;20021;-64
2021/03/31 07:35:37;;;;;;;28.50;20.65;;;;;;;;;;5010997;28;20420;-65
2021/03/31 07:38:04;;;;;;;27.73;19.73;;;;;;;;;;5013203;28;20030;-65
2021/03/31 07:40:31;;;;;;;27.13;18.23;;;;;;;;;;5011393;28;20502;-65
2021/03/31 07:43:10;;;;;;;25.02;17.98;;;;;;;;;;5013502;28;20419;-68
2021/03/31 07:45:38;;;;;;;29.60;19.60;;;;;;;;;;5014852;28;20041;-63
2021/03/31 07:48:04;;;;;;;34.28;19.13;;;;;;;;;;5016031;28;20483;-65
2021/03/31 07:50:32;;;;;;;28.77;19.00;;;;;;;;;;5016220;28;20129;-63
2021/03/31 07:52:59;;;;;;;26.63;17.83;;;;;;;;;;5011262;28;20057;-62
2021/03/31 07:55:34;;;;;;;26.10;17.38;;;;;;;;;;5012348;28;20022;-62
2021/03/31 07:58:28;;;;;;;26.17;17.88;;;11.70;99.90;;;;;;5012316;28;20160;-59
2021/03/31 08:01:02;;;;;;;27.25;18.13;;;13.80;99.90;;;;;;5010789;28;20101;-63
2021/03/31 08:03:38;;;;;;;32.47;19.02;;;13.80;98.30;;;;;;5012082;28;20030;-63
2021/03/31 08:06:20;;;;;;;26.55;18.70;;;14.10;98.20;;;;;;5010831;28;20025;-64
2021/03/31 08:08:46;;;;;;;25.92;17.83;;;14.40;94.60;;;;;;5011149;28;20071;-64
2021/03/31 08:11:13;;;;;;;28.10;18.55;;;14.50;93.60;;;;;;5011768;28;20043;-63
2021/03/31 08:13:46;;;;;;;27.33;18.95;;;14.70;92.70;;;;;;5011561;28;20160;-59
2021/03/31 08:16:36;;;;;;;25.83;18.13;;;;;;;;;;5011570;28;20022;-61
2021/03/31 08:19:04;;;;;;;24.92;17.58;;;;;;;;;;5011358;28;20033;-64
2021/03/31 08:21:31;;;;;;;32.47;19.58;;;;;;;;;;5011598;28;20045;-67
2021/03/31 08:23:58;;;;;;;29.00;18.65;;;;;;;;;;5009459;28;20030;-63
2021/03/31 08:26:32;;;;;;;26.10;18.98;;;;;;;;;;5009086;28;20034;-65
2021/03/31 08:29:03;;;;;;;26.63;18.90;;;;;;;;;;5010194;28;20053;-65
2021/03/31 08:31:35;;;;;;;29.90;19.90;;;;;;;;;;5010187;28;20049;-60
2021/03/31 08:34:01;;;;;;;29.52;19.40;;;;;;;;;;5011164;28;20522;-63
2021/03/31 08:36:27;;;;;;;25.35;19.33;;;;;;;;;;5011190;28;20068;-64
2021/03/31 08:38:54;;;;;;;27.17;19.13;;;;;;;;;;5010160;28;20467;-62
2021/03/31 08:41:21;;;;;;;26.73;19.30;;;;;;;;;;5010160;28;20030;-63
2021/03/31 08:43:48;;;;;;;26.63;19.70;;;;;;;;;;5009567;28;20034;-62
2021/03/31 08:46:27;;;;;;;26.20;19.10;;;;;;;;;;5011291;28;20129;-62
2021/03/31 08:48:53;;;;;;;26.00;19.65;;;;;;;;;;5009588;28;20030;-61
2021/03/31 08:51:20;;;;;;;25.95;19.23;;;;;;;;;;5010875;28;20018;-63
2021/03/31 08:53:46;;;;;;;25.55;19.83;;;;;;;;;;5009196;28;20022;-64
2021/03/31 08:56:19;;;;;;;53.72;23.98;;;;;;;;;;5011119;28;20173;-65
2021/03/31 08:58:51;;;;;;;26.42;19.65;;;14.80;92.30;;;;;;5011400;28;20026;-64
2021/03/31 09:01:28;;;;;;;26.15;19.05;;;16.80;82.10;;;;;;5009900;28;20053;-64
2021/03/31 09:04:16;;;;;;;25.77;19.77;;;16.90;81.30;;;;;;5010370;28;20422;-63
2021/03/31 09:06:42;;;;;;;;;;;;;;;;;;5009614;28;20026;-65
2021/03/31 09:09:08;;;;;;;24.50;18.85;;;;;;;;;;5010677;28;19910;-65
2021/03/31 09:11:34;;;;;;;28.98;20.35;;;;;;;;;;5010517;28;20025;-67
2021/03/31 09:14:19;;;;;;;30.25;20.77;;;;;;;;;;5009170;28;20026;-66
2021/03/31 09:16:52;;;;;;;28.45;19.85;;;;;;;;;;5010832;28;20025;-64
2021/03/31 09:19:19;;;;;;;26.52;20.45;;;;;;;;;;5010707;28;20028;-65
2021/03/31 09:21:45;;;;;;;27.38;21.33;;;;;;;;;;5009032;28;20065;-65
2021/03/31 09:24:16;;;;;;;24.50;20.40;;;;;;;;;;5008850;28;20025;-65
2021/03/31 09:26:42;;;;;;;25.88;20.55;;;;;;;;;;5010031;28;20069;-63
2021/03/31 09:29:18;;;;;;;33.53;21.92;;;;;;;;;;5010305;28;20048;-63
2021/03/31 09:31:45;;;;;;;28.23;22.35;;;;;;;;;;5010653;28;20424;-63
2021/03/31 09:34:11;;;;;;;28.92;20.33;;;;;;;;;;5010050;28;20026;-64
2021/03/31 09:36:37;;;;;;;27.55;20.95;;;17.00;80.50;;;;;;5010024;28;20462;-65
2021/03/31 09:39:05;;;;;;;28.90;20.60;;;18.90;74.10;;;;;;5013208;28;20057;-64
2021/03/31 09:41:32;;;;;;;31.35;21.63;;;18.90;72.80;;;;;;5013104;28;20487;-66
2021/03/31 09:43:59;;;;;;;26.30;20.83;;;19.00;72.30;;;;;;5014129;28;20111;-65
2021/03/31 09:46:26;;;;;;;26.10;21.35;;;19.00;72.80;;;;;;5014734;28;20032;-64
2021/03/31 09:48:53;;;;;;;26.33;21.10;;;19.10;71.30;;;;;;5012652;28;20025;-65
2021/03/31 09:51:20;;;;;;;30.42;21.08;;;19.20;71.60;;;;;;5013947;28;20021;-62
2021/03/31 09:53:47;;;;;;;26.75;20.70;;;19.30;71.90;;;;;;5014323;28;20022;-63
2021/03/31 09:56:13;;;;;;;29.73;20.50;;;19.40;69.40;;;;;;5014261;28;20105;-65
2021/03/31 09:58:40;;;;;;;29.85;21.60;;;19.50;68.70;;;;;;5014231;28;20390;-62
2021/03/31 10:01:14;;;;;;;29.80;20.73;;;19.70;68.20;;;;;;5012614;28;20140;-64
2021/03/31 10:03:44;;;;;;;33.20;21.85;;;19.80;68.70;;;;;;5012621;28;20065;-64
2021/03/31 10:06:24;;;;;;;28.80;19.25;;;19.90;68.10;;;;;;5014001;28;20041;-63
2021/03/31 10:08:50;;;;;;;27.60;20.38;;;20.00;67.40;;;;;;5012900;28;20562;-66
2021/03/31 10:11:38;;;;;;;25.27;19.52;;;20.00;66.80;;;;;;5014196;28;20029;-67
2021/03/31 10:14:05;;;;;;;26.70;20.90;;;20.10;65.90;;;;;;5012728;28;20022;-60
2021/03/31 10:16:36;;;;;;;26.57;20.27;;;20.20;67.40;;;;;;5013892;28;20033;-64
2021/03/31 10:19:05;;;;;;;27.73;20.60;;;20.40;65.70;;;;;;5013966;28;20049;-64
2021/03/31 10:21:33;;;;;;;27.15;19.90;;;20.50;65.90;;;;;;5012822;28;20026;-63
2021/03/31 10:24:01;;;;;;;26.73;21.38;;;20.40;65.30;;;;;;5012113;28;20113;-66
2021/03/31 10:26:38;;;;;;;29.10;20.88;;;20.60;66.60;;;;;;5014489;28;20029;-66
2021/03/31 10:29:22;;;;;;;29.10;21.13;;;20.60;65.30;;;;;;5013792;28;20103;-65
2021/03/31 10:31:48;;;;;;;27.08;21.58;;;;;;;;;;5012327;28;20475;-65
2021/03/31 10:34:15;;;;;;;26.80;21.23;;;20.70;65.40;;;;;;5028056;28;20029;-65
2021/03/31 10:36:55;;;;;;;26.05;20.77;;;20.90;67.20;;;;;;5014273;28;20124;-67
2021/03/31 10:49:53;;;;;;;28.75;21.92;;;;;;;;;;4997197;28;20022;-66
2021/03/31 10:52:23;;;;;;;26.40;20.98;;;;;;;;;;5011788;28;20022;-66
2021/03/31 10:54:49;;;;;;;28.52;22.88;;;;;;;;;;5010297;28;20483;-67
2021/03/31 10:57:15;;;;;;;28.80;22.15;;;21.30;63.80;;;;;;5012154;28;20061;-67
2021/03/31 10:59:41;;;;;;;29.30;22.05;;;21.70;63.70;;;;;;5011924;28;20108;-67
2021/03/31 11:02:07;;;;;;;27.38;21.73;;;21.80;63.60;;;;;;5011884;28;20074;-66
2021/03/31 11:04:33;;;;;;;26.05;21.23;;;22.00;62.50;;;;;;5010362;28;20245;-66
2021/03/31 11:06:59;;;;;;;28.13;23.00;;;22.10;62.30;;;;;;5011614;28;20249;-67
2021/03/31 11:09:25;;;;;;;27.83;22.05;;;22.20;61.60;;;;;;5010655;28;20169;-66
2021/03/31 11:11:51;;;;;;;27.13;22.02;;;22.50;60.90;;;;;;5011735;28;20029;-66
2021/03/31 11:14:18;;;;;;;29.95;21.98;;;23.20;60.80;;;;;;5011123;28;20065;-65
2021/03/31 11:27:13;;;;;;;30.95;23.98;;;28.00;53.20;;;;;;5013580;28;20033;-66
2021/03/31 11:29:39;;;;;;;27.20;22.48;;;28.20;52.00;;;;;;5012235;28;20491;-66
2021/03/31 11:32:05;;;;;;;28.17;23.08;;;28.30;49.80;;;;;;5012660;28;20025;-66
2021/03/31 11:34:31;;;;;;;30.90;23.63;;;28.40;50.40;;;;;;5011711;28;20032;-65
2021/03/31 11:36:57;;;;;;;29.05;22.83;;;29.20;49.20;;;;;;5006398;28;20018;-66
2021/03/31 11:39:22;;;;;;;27.92;24.23;;;29.60;48.10;;;;;;5012297;28;20390;-64
2021/03/31 11:41:48;;;;;;;28.13;23.13;;;29.90;47.00;;;;;;5012729;28;20025;-65
2021/03/31 11:44:14;;;;;;;28.85;22.60;;;30.10;47.30;;;;;;5012058;28;20121;-63
2021/03/31 11:46:39;;;;;;;28.85;23.23;;;29.30;45.20;;;;;;5012144;28;20025;-66
2021/03/31 11:49:05;;;;;;;26.98;24.08;;;29.80;45.20;;;;;;5012645;28;20033;-65
2021/03/31 11:51:31;;;;;;;29.02;24.05;;;29.70;45.40;;;;;;4664964;28;10000146;-66
2021/03/31 11:53:57;;;;;;;35.75;24.40;;;29.80;45.30;;;;;;5008877;28;20610;-65
2021/03/31 11:56:22;;;;;;;27.90;23.30;;;29.80;43.10;;;;;;5011557;28;20033;-66
2021/03/31 11:58:48;;;;;;;31.73;25.60;;;29.10;43.40;;;;;;5010448;28;20037;-64
2021/03/31 12:01:14;;;;;;;28.25;23.17;;;29.00;45.00;;;;;;5010367;28;20034;-70
2021/03/31 12:03:40;;;;;;;27.60;23.45;;;29.10;44.30;;;;;;5011221;28;20041;-66
2021/03/31 12:06:05;;;;;;;28.73;24.33;;;29.10;44.80;;;;;;5009782;28;20109;-67
2021/03/31 12:08:31;;;;;;;28.25;23.27;;;29.30;44.80;;;;;;5011283;28;20161;-68
2021/03/31 12:10:57;;;;;;;28.23;24.05;;;30.00;43.10;;;;;;5011145;28;20101;-67
2021/03/31 12:13:22;;;;;;;27.80;24.17;;;30.30;43.70;;;;;;5009297;28;20026;-66
2021/03/31 12:15:48;;;;;;;28.90;23.25;;;;;;;;;;5010529;28;20026;-67
2021/03/31 12:18:14;;;;;;;31.75;24.50;;;30.50;42.90;;;;;;5008863;28;20084;-66
2021/03/31 12:20:39;;;;;;;28.40;23.98;;;31.20;44.00;;;;;;5009663;28;20111;-66
2021/03/31 12:23:05;;;;;;;30.10;24.50;;;30.80;43.60;;;;;;5004382;28;20022;-66
2021/03/31 12:25:32;;;;;;;26.58;22.63;;;30.40;44.10;;;;;;5009023;28;20093;-67
2021/03/31 12:28:00;;;;;;;29.05;24.25;;;29.90;43.90;;;;;;5009569;28;20014;-66
2021/03/31 12:30:27;;;;;;;31.00;24.45;;;30.40;43.80;;;;;;5008098;28;20021;-66
2021/03/31 12:32:53;;;;;;;27.75;24.17;;;30.80;44.40;;;;;;5010992;28;20026;-67
2021/03/31 12:35:19;;;;;;;27.33;23.58;;;30.80;44.20;;;;;;5010301;28;20116;-66
2021/03/31 12:37:45;;;;;;;27.38;23.25;;;30.50;43.90;;;;;;5012053;28;20022;-65
2021/03/31 12:40:11;;;;;;;28.48;24.73;;;30.80;46.30;;;;;;5010720;28;20361;-66
2021/03/31 12:42:38;;;;;;;28.15;23.83;;;31.50;43.20;;;;;;5024611;23;20038;-49
2021/03/31 12:45:06;;;;;;;28.63;23.98;;;30.50;43.60;;;;;;4991453;28;20030;-52
2021/03/31 12:47:34;;;;;;;28.02;24.98;;;31.60;45.70;;;;;;4996621;28;20030;-56
2021/03/31 12:49:59;;;;;;;28.98;24.77;;;32.20;43.00;;;;;;4993500;28;20099;-57
2021/03/31 12:52:29;;;;;;;27.10;24.30;;;32.20;42.40;;;;;;5011996;28;20026;-55
2021/03/31 12:55:19;;;;;;;29.80;26.65;;;32.80;42.60;;;;;;5011978;28;20072;-50
2021/03/31 12:57:42;;;;;;;28.23;25.33;;;32.30;43.60;;;;;;5011852;28;20037;-58
2021/03/31 13:00:09;;;;;;;27.92;24.42;;;33.10;42.80;;;;;;5012305;28;20399;-53
2021/03/31 13:02:34;;;;;;;27.63;24.63;;;32.90;41.60;;;;;;5011021;28;20022;-53
2021/03/31 13:05:00;;;;;;;27.63;24.60;;;32.10;41.70;;;;;;5010595;28;20028;-52
2021/03/31 13:07:26;;;;;;;29.83;24.50;;;32.40;44.10;;;;;;5010667;28;20029;-55
2021/03/31 13:09:52;;;;;;;26.20;23.40;;;32.30;43.40;;;;;;5010938;28;20033;-57
2021/03/31 13:12:35;;;;;;;29.63;25.70;;;33.30;43.70;;;;;;5011391;28;20100;-54
2021/03/31 13:28:32;;;;;;;27.08;23.10;;;32.20;41.30;;;;;;5011774;28;20121;-51
2021/03/31 13:33:32;;;;;;;26.38;22.88;;;32.00;42.40;;;;;;5011651;28;20168;-57
2021/03/31 13:38:46;;;;;;;25.98;21.90;;;33.20;41.10;;;;;;5012122;28;20021;-54
2021/03/31 13:41:12;;;;;;;24.23;20.88;;;33.50;42.00;;;;;;5010572;28;20160;-56
2021/03/31 13:43:37;;;;;;;23.73;21.05;;;33.60;40.20;;;;;;5009758;28;20539;-52
2021/03/31 13:46:03;;;;;;;27.33;21.48;;;32.50;40.50;;;;;;5011579;28;20376;-56
2021/03/31 13:50:55;;;;;;;30.00;21.48;;;32.60;41.00;;;;;;5011164;28;20036;-55
2021/03/31 13:53:22;;;;;;;24.15;20.60;;;31.60;41.10;;;;;;5011049;28;20153;-52
2021/03/31 13:55:48;;;;;;;24.95;21.60;;;31.90;41.90;;;;;;5011202;28;20454;-58
2021/03/31 13:58:14;;;;;;;25.60;21.88;;;31.90;43.00;;;;;;5011327;28;20484;-55
2021/03/31 14:00:40;;;;;;;24.65;22.08;;;32.70;41.40;;;;;;5011749;28;20048;-57
2021/03/31 14:03:06;;;;;;;34.10;21.58;;;32.30;41.30;;;;;;5011380;28;20096;-57
2021/03/31 14:05:31;;;;;;;23.95;21.45;;;32.60;40.90;;;;;;5009810;28;20030;-55
2021/03/31 14:07:57;;;;;;;28.00;22.08;;;32.90;41.10;;;;;;5010340;28;20053;-51
2021/03/31 14:10:23;;;;;;;24.25;21.73;;;32.30;42.50;;;;;;5011412;28;20495;-56
2021/03/31 14:12:52;;;;;;;26.48;22.80;;;32.30;40.70;;;;;;4318279;28;10000722;-50
2021/03/31 14:15:19;;;;;;;25.63;21.48;;;32.20;41.10;;;;;;5008162;28;20648;-59
2021/03/31 14:17:46;;;;;;;25.55;22.27;;;31.30;41.50;;;;;;5008717;28;20402;-50
2021/03/31 14:20:13;;;;;;;24.42;21.55;;;31.40;41.60;;;;;;5007809;28;20069;-55
2021/03/31 14:22:42;;;;;;;24.77;22.13;;;31.30;42.80;;;;;;5006768;28;20037;-54
2021/03/31 14:25:13;;;;;;;26.02;22.30;;;31.20;41.30;;;;;;5011217;28;20068;-57
2021/03/31 14:27:39;;;;;;;27.88;22.02;;;31.80;41.40;;;;;;5011825;28;20026;-54